Time,TemperatureF,DewpointF,PressureIn,WindDirection,WindDirectionDegrees,WindSpeedMPH,WindSpeedGustMPH,Humidity,HourlyPrecipIn,Conditions,Clouds,dailyrainin,SoftwareType,DateUTC
2013-02-09 00:00:00,48.5,34.8,30.08,NE,37,0.0,0.0,59,0.00,,,0.00,Wunderground v.1.15,2013-02-09 06:00:00,
2013-02-09 00:10:00,48.3,34.2,30.09,NE,37,0.0,0.0,58,0.00,,,0.00,Wunderground v.1.15,2013-02-09 06:10:00,
2013-02-09 00:15:00,48.1,34.0,30.09,NE,37,0.0,0.0,58,0.00,,,0.00,Wunderground v.1.15,2013-02-09 06:15:00,
2013-02-09 00:25:00,47.7,33.6,30.08,NE,37,0.0,0.0,58,0.00,,,0.00,Wunderground v.1.15,2013-02-09 06:25:00,
2013-02-09 00:30:00,47.7,33.2,30.09,NE,37,0.0,0.0,57,0.00,,,0.00,Wunderground v.1.15,2013-02-09 06:30:00,
2013-02-09 00:35:00,47.7,33.2,30.09,NE,37,0.0,0.0,57,0.00,,,0.00,Wunderground v.1.15,2013-02-09 06:35:00,
2013-02-09 00:40:00,47.7,33.2,30.08,NE,37,0.0,0.0,57,0.00,,,0.00,Wunderground v.1.15,2013-02-09 06:40:00,
2013-02-09 00:50:00,47.0,33.0,30.08,NE,37,0.0,0.0,58,0.00,,,0.00,Wunderground v.1.15,2013-02-09 06:50:00,
2013-02-09 01:00:00,46.7,32.3,30.08,NE,37,0.0,0.0,57,0.00,,,0.00,Wunderground v.1.15,2013-02-09 07:00:00,
2013-02-09 01:10:00,46.7,32.3,30.08,NE,37,0.0,0.0,57,0.00,,,0.00,Wunderground v.1.15,2013-02-09 07:10:00,
2013-02-09 01:20:00,46.7,32.3,30.08,NE,37,0.0,0.0,57,0.00,,,0.00,Wunderground v.1.15,2013-02-09 07:20:00,
2013-02-09 01:30:00,46.6,32.2,30.08,NE,37,0.0,0.0,57,0.00,,,0.00,Wunderground v.1.15,2013-02-09 07:30:00,
2013-02-09 01:40:00,46.2,31.8,30.09,NE,37,0.0,0.0,57,0.00,,,0.00,Wunderground v.1.15,2013-02-09 07:40:00,
2013-02-09 01:50:00,46.2,31.8,30.09,NE,37,0.0,0.0,57,0.00,,,0.00,Wunderground v.1.15,2013-02-09 07:50:00,
2013-02-09 01:55:00,46.3,31.4,30.09,NE,37,0.0,0.0,56,0.00,,,0.00,Wunderground v.1.15,2013-02-09 07:55:00,
2013-02-09 02:00:00,46.3,31.4,30.08,NE,37,0.0,0.0,56,0.00,,,0.00,Wunderground v.1.15,2013-02-09 08:00:00,
2013-02-09 02:10:00,45.8,31.4,30.08,NE,37,0.0,0.0,57,0.00,,,0.00,Wunderground v.1.15,2013-02-09 08:10:00,
2013-02-09 02:20:00,45.7,31.3,30.08,NE,37,0.0,0.0,57,0.00,,,0.00,Wunderground v.1.15,2013-02-09 08:20:00,
2013-02-09 02:30:00,45.6,31.2,30.07,NE,37,0.0,2.0,57,0.00,,,0.00,Wunderground v.1.15,2013-02-09 08:30:00,
2013-02-09 02:40:00,45.4,31.0,30.07,NE,37,0.0,0.0,57,0.00,,,0.00,Wunderground v.1.15,2013-02-09 08:40:00,
2013-02-09 02:45:00,45.2,30.9,30.07,NE,37,0.0,0.0,57,0.00,,,0.00,Wunderground v.1.15,2013-02-09 08:45:00,
2013-02-09 02:50:00,45.0,30.7,30.07,NE,37,0.0,0.0,57,0.00,,,0.00,Wunderground v.1.15,2013-02-09 08:50:00,
2013-02-09 03:00:00,45.0,30.7,30.07,NE,37,0.0,0.0,57,0.00,,,0.00,Wunderground v.1.15,2013-02-09 09:00:00,
2013-02-09 03:10:00,45.0,30.7,30.07,NE,37,0.0,0.0,57,0.00,,,0.00,Wunderground v.1.15,2013-02-09 09:10:00,
2013-02-09 03:20:00,44.9,30.6,30.07,NE,37,0.0,0.0,57,0.00,,,0.00,Wunderground v.1.15,2013-02-09 09:20:00,
2013-02-09 03:30:00,44.7,30.8,30.06,NE,37,0.0,0.0,58,0.00,,,0.00,Wunderground v.1.15,2013-02-09 09:30:00,
2013-02-09 03:35:00,44.6,30.7,30.06,NE,37,0.0,0.0,58,0.00,,,0.00,Wunderground v.1.15,2013-02-09 09:35:00,
2013-02-09 03:40:00,44.5,30.6,30.06,NE,37,1.0,1.0,58,0.00,,,0.00,Wunderground v.1.15,2013-02-09 09:40:00,
2013-02-09 03:45:00,44.4,30.5,30.06,NE,37,0.0,1.0,58,0.00,,,0.00,Wunderground v.1.15,2013-02-09 09:45:00,
2013-02-09 03:50:00,44.3,30.4,30.06,NE,36,0.0,0.0,58,0.00,,,0.00,Wunderground v.1.15,2013-02-09 09:50:00,
2013-02-09 04:00:00,44.2,30.3,30.06,NE,34,0.0,0.0,58,0.00,,,0.00,Wunderground v.1.15,2013-02-09 10:00:00,
2013-02-09 04:05:00,44.1,30.3,30.06,NE,34,0.0,2.0,58,0.00,,,0.00,Wunderground v.1.15,2013-02-09 10:05:00,
2013-02-09 04:10:00,44.1,30.3,30.06,NE,34,0.0,2.0,58,0.00,,,0.00,Wunderground v.1.15,2013-02-09 10:10:00,
2013-02-09 04:20:00,44.0,30.2,30.06,NE,34,0.0,0.0,58,0.00,,,0.00,Wunderground v.1.15,2013-02-09 10:20:00,
2013-02-09 04:30:00,43.8,30.0,30.06,NE,34,0.0,0.0,58,0.00,,,0.00,Wunderground v.1.15,2013-02-09 10:30:00,
2013-02-09 04:40:00,43.7,29.9,30.05,NE,34,0.0,1.0,58,0.00,,,0.00,Wunderground v.1.15,2013-02-09 10:40:00,
2013-02-09 04:45:00,43.7,29.9,30.05,NE,35,0.0,1.0,58,0.00,,,0.00,Wunderground v.1.15,2013-02-09 10:45:00,
2013-02-09 04:50:00,43.6,29.8,30.05,NE,34,0.0,0.0,58,0.00,,,0.00,Wunderground v.1.15,2013-02-09 10:50:00,
2013-02-09 05:00:00,43.6,29.8,30.05,NNE,24,0.0,3.0,58,0.00,,,0.00,Wunderground v.1.15,2013-02-09 11:00:00,
2013-02-09 05:10:00,43.5,29.7,30.06,NNE,24,0.0,0.0,58,0.00,,,0.00,Wunderground v.1.15,2013-02-09 11:10:00,
2013-02-09 05:20:00,43.4,29.6,30.06,NNE,24,0.0,0.0,58,0.00,,,0.00,Wunderground v.1.15,2013-02-09 11:20:00,
2013-02-09 05:25:00,43.3,29.5,30.06,NNE,24,0.0,0.0,58,0.00,,,0.00,Wunderground v.1.15,2013-02-09 11:25:00,
2013-02-09 05:30:00,43.3,29.5,30.06,NNE,24,0.0,0.0,58,0.00,,,0.00,Wunderground v.1.15,2013-02-09 11:30:00,
2013-02-09 05:40:00,43.2,29.0,30.06,NNE,24,0.0,0.0,57,0.00,,,0.00,Wunderground v.1.15,2013-02-09 11:40:00,
2013-02-09 05:45:00,43.2,29.0,30.07,NNE,24,0.0,0.0,57,0.00,,,0.00,Wunderground v.1.15,2013-02-09 11:45:00,
2013-02-09 05:55:00,43.2,29.0,30.07,NNE,24,0.0,0.0,57,0.00,,,0.00,Wunderground v.1.15,2013-02-09 11:55:00,
2013-02-09 06:00:00,43.4,29.2,30.07,NNE,24,0.0,0.0,57,0.00,,,0.00,Wunderground v.1.15,2013-02-09 12:00:00,
2013-02-09 06:10:00,43.7,29.0,30.08,NNE,24,0.0,0.0,56,0.00,,,0.00,Wunderground v.1.15,2013-02-09 12:10:00,
2013-02-09 06:15:00,43.9,29.2,30.08,NNE,24,0.0,0.0,56,0.00,,,0.00,Wunderground v.1.15,2013-02-09 12:15:00,
2013-02-09 06:20:00,44.0,29.3,30.08,NNE,24,0.0,0.0,56,0.00,,,0.00,Wunderground v.1.15,2013-02-09 12:20:00,
2013-02-09 06:30:00,44.2,29.5,30.08,NNE,24,0.0,0.0,56,0.00,,,0.00,Wunderground v.1.15,2013-02-09 12:30:00,
2013-02-09 06:40:00,44.3,29.6,30.09,NNE,24,0.0,0.0,56,0.00,,,0.00,Wunderground v.1.15,2013-02-09 12:40:00,
2013-02-09 06:50:00,44.5,29.8,30.08,NNE,24,0.0,0.0,56,0.00,,,0.00,Wunderground v.1.15,2013-02-09 12:50:00,
2013-02-09 07:00:00,44.6,29.9,30.09,NNE,24,0.0,0.0,56,0.00,,,0.00,Wunderground v.1.15,2013-02-09 13:00:00,
2013-02-09 07:10:00,44.7,30.0,30.09,NNE,24,0.0,0.0,56,0.00,,,0.00,Wunderground v.1.15,2013-02-09 13:10:00,
2013-02-09 07:20:00,44.8,30.0,30.10,NNE,24,0.0,0.0,56,0.00,,,0.00,Wunderground v.1.15,2013-02-09 13:20:00,
2013-02-09 07:30:00,45.0,30.2,30.10,NNE,24,0.0,0.0,56,0.00,,,0.00,Wunderground v.1.15,2013-02-09 13:30:00,
2013-02-09 07:40:00,45.0,30.2,30.09,NNE,24,0.0,0.0,56,0.00,,,0.00,Wunderground v.1.15,2013-02-09 13:40:00,
2013-02-09 07:50:00,45.4,30.6,30.09,NNE,24,0.0,0.0,56,0.00,,,0.00,Wunderground v.1.15,2013-02-09 13:50:00,
2013-02-09 08:00:00,45.8,30.5,30.09,NNE,24,0.0,0.0,55,0.00,,,0.00,Wunderground v.1.15,2013-02-09 14:00:00,
2013-02-09 08:10:00,46.0,31.2,30.09,NNE,24,0.0,0.0,56,0.00,,,0.00,Wunderground v.1.15,2013-02-09 14:10:00,
2013-02-09 08:15:00,46.2,30.9,30.09,NNE,24,0.0,0.0,55,0.00,,,0.00,Wunderground v.1.15,2013-02-09 14:15:00,
2013-02-09 08:20:00,46.3,31.0,30.10,NNE,24,0.0,0.0,55,0.00,,,0.00,Wunderground v.1.15,2013-02-09 14:20:00,
2013-02-09 08:30:00,46.8,31.5,30.09,NNE,24,0.0,0.0,55,0.00,,,0.00,Wunderground v.1.15,2013-02-09 14:30:00,
2013-02-09 08:40:00,47.1,32.2,30.10,NNE,24,0.0,0.0,56,0.00,,,0.00,Wunderground v.1.15,2013-02-09 14:40:00,
2013-02-09 08:50:00,47.4,32.5,30.08,NNE,27,1.0,2.0,56,0.00,,,0.00,Wunderground v.1.15,2013-02-09 14:50:00,
2013-02-09 09:00:00,48.1,33.1,30.08,NNE,30,1.0,3.0,56,0.00,,,0.00,Wunderground v.1.15,2013-02-09 15:00:00,
2013-02-09 09:05:00,48.5,33.5,30.08,ENE,57,1.0,3.0,56,0.00,,,0.00,Wunderground v.1.15,2013-02-09 15:05:00,
2013-02-09 09:10:00,48.9,33.9,30.08,ENE,70,1.0,3.0,56,0.00,,,0.00,Wunderground v.1.15,2013-02-09 15:10:00,
2013-02-09 09:20:00,49.7,35.5,30.08,ENE,62,2.0,2.0,58,0.00,,,0.00,Wunderground v.1.15,2013-02-09 15:20:00,
2013-02-09 09:30:00,50.9,37.5,30.08,NE,55,2.0,4.0,60,0.00,,,0.00,Wunderground v.1.15,2013-02-09 15:30:00,
2013-02-09 09:40:00,51.6,38.6,30.07,East,81,2.0,4.0,61,0.00,,,0.00,Wunderground v.1.15,2013-02-09 15:40:00,
2013-02-09 09:50:00,52.5,39.4,30.07,ENE,67,2.0,2.0,61,0.00,,,0.00,Wunderground v.1.15,2013-02-09 15:50:00,
2013-02-09 10:00:00,53.4,40.7,30.07,East,92,1.0,1.0,62,0.00,,,0.00,Wunderground v.1.15,2013-02-09 16:00:00,
2013-02-09 10:05:00,53.9,41.6,30.07,East,92,0.0,1.0,63,0.00,,,0.00,Wunderground v.1.15,2013-02-09 16:05:00,
2013-02-09 10:10:00,54.3,41.6,30.07,East,91,0.0,0.0,62,0.00,,,0.00,Wunderground v.1.15,2013-02-09 16:10:00,
2013-02-09 10:20:00,55.5,43.5,30.07,ESE,111,1.0,2.0,64,0.00,,,0.00,Wunderground v.1.15,2013-02-09 16:20:00,
2013-02-09 10:30:00,55.9,43.9,30.07,ESE,111,1.0,1.0,64,0.00,,,0.00,Wunderground v.1.15,2013-02-09 16:30:00,
2013-02-09 10:40:00,56.6,45.0,30.07,South,178,1.0,1.0,65,0.00,,,0.00,Wunderground v.1.15,2013-02-09 16:40:00,
2013-02-09 10:45:00,56.5,44.5,30.07,ENE,75,1.0,1.0,64,0.00,,,0.00,Wunderground v.1.15,2013-02-09 16:45:00,
2013-02-09 10:55:00,56.9,44.8,30.07,East,101,0.0,1.0,64,0.00,,,0.00,Wunderground v.1.15,2013-02-09 16:55:00,
2013-02-09 11:00:00,57.1,45.0,30.07,ENE,67,1.0,1.0,64,0.00,,,0.00,Wunderground v.1.15,2013-02-09 17:00:00,
2013-02-09 11:10:00,57.1,45.0,30.06,ENE,68,1.0,1.0,64,0.00,,,0.00,Wunderground v.1.15,2013-02-09 17:10:00,
2013-02-09 11:20:00,57.5,45.8,30.06,ESE,118,1.0,3.0,65,0.00,,,0.00,Wunderground v.1.15,2013-02-09 17:20:00,
2013-02-09 11:30:00,57.6,45.1,30.05,ENE,61,1.0,1.0,63,0.00,,,0.00,Wunderground v.1.15,2013-02-09 17:30:00,
2013-02-09 11:35:00,58.1,46.0,30.05,NE,50,1.0,2.0,64,0.00,,,0.00,Wunderground v.1.15,2013-02-09 17:35:00,
2013-02-09 11:40:00,58.1,46.0,30.04,East,94,1.0,1.0,64,0.00,,,0.00,Wunderground v.1.15,2013-02-09 17:40:00,
2013-02-09 11:50:00,58.5,45.9,30.04,East,82,1.0,1.0,63,0.00,,,0.00,Wunderground v.1.15,2013-02-09 17:50:00,
2013-02-09 12:00:00,59.5,47.3,30.04,East,86,1.0,1.0,64,0.00,,,0.00,Wunderground v.1.15,2013-02-09 18:00:00,
2013-02-09 12:05:00,60.3,48.5,30.03,East,84,0.0,1.0,65,0.00,,,0.00,Wunderground v.1.15,2013-02-09 18:05:00,
2013-02-09 12:15:00,60.7,48.9,30.03,ENE,67,2.0,2.0,65,0.00,,,0.00,Wunderground v.1.15,2013-02-09 18:15:00,
2013-02-09 12:25:00,61.0,48.7,30.02,SE,131,1.0,2.0,64,0.00,,,0.00,Wunderground v.1.15,2013-02-09 18:25:00,
2013-02-09 12:30:00,61.0,49.1,30.02,ENE,73,1.0,2.0,65,0.00,,,0.00,Wunderground v.1.15,2013-02-09 18:30:00,
2013-02-09 12:40:00,60.5,48.3,30.01,South,172,2.0,2.0,64,0.00,,,0.00,Wunderground v.1.15,2013-02-09 18:40:00,
2013-02-09 12:45:00,60.4,47.7,30.01,ESE,123,1.0,2.0,63,0.00,,,0.00,Wunderground v.1.15,2013-02-09 18:45:00,
2013-02-09 12:50:00,60.5,48.3,30.00,East,98,1.0,1.0,64,0.00,,,0.00,Wunderground v.1.15,2013-02-09 18:50:00,
2013-02-09 13:00:00,60.7,48.0,30.00,East,98,0.0,0.0,63,0.00,,,0.00,Wunderground v.1.15,2013-02-09 19:00:00,
2013-02-09 13:10:00,60.3,47.6,29.99,East,93,1.0,1.0,63,0.00,,,0.00,Wunderground v.1.15,2013-02-09 19:10:00,
2013-02-09 13:20:00,60.5,47.4,29.99,East,92,0.0,0.0,62,0.00,,,0.00,Wunderground v.1.15,2013-02-09 19:20:00,
2013-02-09 13:25:00,60.8,48.1,29.98,East,93,0.0,1.0,63,0.00,,,0.00,Wunderground v.1.15,2013-02-09 19:25:00,
2013-02-09 13:30:00,60.9,48.2,29.98,East,93,0.0,0.0,63,0.00,,,0.00,Wunderground v.1.15,2013-02-09 19:30:00,
2013-02-09 13:40:00,61.1,48.4,29.97,ESE,115,1.0,1.0,63,0.00,,,0.00,Wunderground v.1.15,2013-02-09 19:40:00,
2013-02-09 13:50:00,61.0,48.3,29.97,ENE,71,0.0,0.0,63,0.00,,,0.00,Wunderground v.1.15,2013-02-09 19:50:00,
2013-02-09 14:00:00,61.3,48.2,29.96,ENE,70,0.0,0.0,62,0.00,,,0.00,Wunderground v.1.15,2013-02-09 20:00:00,
2013-02-09 14:10:00,61.4,48.3,29.96,ENE,70,0.0,0.0,62,0.00,,,0.00,Wunderground v.1.15,2013-02-09 20:10:00,
2013-02-09 14:15:00,61.6,48.4,29.96,ENE,70,0.0,0.0,62,0.00,,,0.00,Wunderground v.1.15,2013-02-09 20:15:00,
2013-02-09 14:25:00,62.0,48.8,29.96,ENE,69,0.0,0.0,62,0.00,,,0.00,Wunderground v.1.15,2013-02-09 20:25:00,
2013-02-09 14:30:00,62.4,49.6,29.96,ENE,70,0.0,0.0,63,0.00,,,0.00,Wunderground v.1.15,2013-02-09 20:30:00,
2013-02-09 14:40:00,62.4,49.6,29.95,ENE,70,0.0,0.0,63,0.00,,,0.00,Wunderground v.1.15,2013-02-09 20:40:00,
2013-02-09 14:45:00,62.6,49.8,29.95,ENE,70,0.0,0.0,63,0.00,,,0.00,Wunderground v.1.15,2013-02-09 20:45:00,
2013-02-09 14:50:00,62.8,50.0,29.95,ENE,70,0.0,0.0,63,0.00,,,0.00,Wunderground v.1.15,2013-02-09 20:50:00,
2013-02-09 15:00:00,63.2,50.4,29.95,ENE,70,0.0,0.0,63,0.00,,,0.00,Wunderground v.1.15,2013-02-09 21:00:00,
2013-02-09 15:10:00,63.4,50.1,29.95,ENE,70,0.0,0.0,62,0.00,,,0.00,Wunderground v.1.15,2013-02-09 21:10:00,
2013-02-09 15:20:00,63.7,50.9,29.94,ENE,70,0.0,0.0,63,0.00,,,0.00,Wunderground v.1.15,2013-02-09 21:20:00,
2013-02-09 15:30:00,63.9,50.6,29.94,ENE,69,0.0,0.0,62,0.00,,,0.00,Wunderground v.1.15,2013-02-09 21:30:00,
2013-02-09 15:35:00,64.3,51.0,29.93,ENE,70,0.0,0.0,62,0.00,,,0.00,Wunderground v.1.15,2013-02-09 21:35:00,
2013-02-09 15:40:00,64.3,51.0,29.93,ENE,69,0.0,0.0,62,0.00,,,0.00,Wunderground v.1.15,2013-02-09 21:40:00,
2013-02-09 15:50:00,64.3,51.0,29.93,ENE,76,1.0,2.0,62,0.00,,,0.00,Wunderground v.1.15,2013-02-09 21:50:00,
2013-02-09 16:00:00,64.0,50.3,29.93,ESE,103,1.0,1.0,61,0.00,,,0.00,Wunderground v.1.15,2013-02-09 22:00:00,
2013-02-09 16:10:00,64.3,50.6,29.91,ENE,68,2.0,2.0,61,0.00,,,0.00,Wunderground v.1.15,2013-02-09 22:10:00,
2013-02-09 16:20:00,64.5,50.7,29.89,SE,146,3.0,3.0,61,0.00,,,0.00,Wunderground v.1.15,2013-02-09 22:20:00,
2013-02-09 16:30:00,64.3,50.6,29.89,East,88,2.0,5.0,61,0.00,,,0.00,Wunderground v.1.15,2013-02-09 22:30:00,
2013-02-09 16:40:00,64.0,50.3,29.89,SE,134,3.0,3.0,61,0.00,,,0.00,Wunderground v.1.15,2013-02-09 22:40:00,
2013-02-09 16:50:00,63.9,50.2,29.89,SW,230,1.0,2.0,61,0.00,,,0.00,Wunderground v.1.15,2013-02-09 22:50:00,
2013-02-09 17:00:00,63.6,49.5,29.90,East,91,1.0,1.0,60,0.00,,,0.00,Wunderground v.1.15,2013-02-09 23:00:00,
2013-02-09 17:10:00,63.2,49.1,29.90,SE,134,0.0,0.0,60,0.00,,,0.00,Wunderground v.1.15,2013-02-09 23:10:00,
2013-02-09 17:20:00,62.9,48.3,29.90,SE,130,0.0,0.0,59,0.00,,,0.00,Wunderground v.1.15,2013-02-09 23:20:00,
2013-02-09 17:25:00,62.8,48.3,29.90,SE,130,0.0,3.0,59,0.00,,,0.00,Wunderground v.1.15,2013-02-09 23:25:00,
2013-02-09 17:30:00,62.6,47.6,29.90,ESE,122,1.0,1.0,58,0.00,,,0.00,Wunderground v.1.15,2013-02-09 23:30:00,
2013-02-09 17:40:00,62.4,47.4,29.90,SE,132,1.0,1.0,58,0.00,,,0.00,Wunderground v.1.15,2013-02-09 23:40:00,
2013-02-09 17:50:00,62.1,46.7,29.89,South,175,0.0,0.0,57,0.00,,,0.00,Wunderground v.1.15,2013-02-09 23:50:00,
2013-02-09 18:00:00,62.0,46.6,29.89,SSE,153,1.0,1.0,57,0.00,,,0.00,Wunderground v.1.15,2013-02-10 00:00:00,
2013-02-09 18:05:00,61.9,46.5,29.89,SSE,152,2.0,4.0,57,0.00,,,0.00,Wunderground v.1.15,2013-02-10 00:05:00,
2013-02-09 18:10:00,61.9,46.5,29.88,ENE,76,2.0,2.0,57,0.00,,,0.00,Wunderground v.1.15,2013-02-10 00:10:00,
2013-02-09 18:20:00,61.8,46.4,29.88,ESE,109,2.0,2.0,57,0.00,,,0.00,Wunderground v.1.15,2013-02-10 00:20:00,
2013-02-09 18:30:00,61.6,45.7,29.88,ESE,106,1.0,1.0,56,0.00,,,0.00,Wunderground v.1.15,2013-02-10 00:30:00,
2013-02-09 18:40:00,61.6,45.7,29.88,SE,128,1.0,1.0,56,0.00,,,0.00,Wunderground v.1.15,2013-02-10 00:40:00,
2013-02-09 18:50:00,61.5,45.7,29.89,SE,126,1.0,1.0,56,0.00,,,0.00,Wunderground v.1.15,2013-02-10 00:50:00,
2013-02-09 19:00:00,61.4,45.6,29.89,East,101,1.0,1.0,56,0.00,,,0.00,Wunderground v.1.15,2013-02-10 01:00:00,
2013-02-09 19:05:00,61.3,45.0,29.89,East,101,0.0,1.0,55,0.00,,,0.00,Wunderground v.1.15,2013-02-10 01:05:00,
2013-02-09 19:10:00,61.3,45.0,29.89,East,101,0.0,0.0,55,0.00,,,0.00,Wunderground v.1.15,2013-02-10 01:10:00,
2013-02-09 19:20:00,61.1,44.8,29.89,ENE,78,0.0,3.0,55,0.00,,,0.00,Wunderground v.1.15,2013-02-10 01:20:00,
2013-02-09 19:30:00,61.1,44.3,29.90,SE,142,1.0,1.0,54,0.00,,,0.00,Wunderground v.1.15,2013-02-10 01:30:00,
2013-02-09 19:40:00,61.1,44.3,29.90,SE,140,1.0,1.0,54,0.00,,,0.00,Wunderground v.1.15,2013-02-10 01:40:00,
2013-02-09 19:50:00,61.1,44.3,29.89,ESE,117,1.0,2.0,54,0.00,,,0.00,Wunderground v.1.15,2013-02-10 01:50:00,
2013-02-09 19:55:00,60.9,43.6,29.89,ESE,118,1.0,2.0,53,0.00,,,0.00,Wunderground v.1.15,2013-02-10 01:55:00,
2013-02-09 20:00:00,60.8,43.1,29.89,ESE,118,0.0,0.0,52,0.00,,,0.00,Wunderground v.1.15,2013-02-10 02:00:00,
2013-02-09 20:10:00,60.7,42.5,29.89,South,190,1.0,1.0,51,0.00,,,0.00,Wunderground v.1.15,2013-02-10 02:10:00,
2013-02-09 20:20:00,60.7,42.5,29.89,ESE,116,1.0,3.0,51,0.00,,,0.00,Wunderground v.1.15,2013-02-10 02:20:00,
2013-02-09 20:30:00,60.9,42.1,29.88,South,179,2.0,2.0,50,0.00,,,0.00,Wunderground v.1.15,2013-02-10 02:30:00,
2013-02-09 20:40:00,61.0,42.2,29.88,East,101,2.0,2.0,50,0.00,,,0.00,Wunderground v.1.15,2013-02-10 02:40:00,
2013-02-09 20:45:00,61.1,42.3,29.88,SSE,161,1.0,2.0,50,0.00,,,0.00,Wunderground v.1.15,2013-02-10 02:45:00,
2013-02-09 20:55:00,61.2,41.9,29.88,ESE,104,1.0,2.0,49,0.00,,,0.00,Wunderground v.1.15,2013-02-10 02:55:00,
2013-02-09 21:00:00,61.3,42.0,29.88,ENE,77,1.0,1.0,49,0.00,,,0.00,Wunderground v.1.15,2013-02-10 03:00:00,
2013-02-09 21:10:00,61.4,42.1,29.88,ESE,122,1.0,1.0,49,0.00,,,0.00,Wunderground v.1.15,2013-02-10 03:10:00,
2013-02-09 21:20:00,61.6,42.2,29.88,ESE,121,1.0,2.0,49,0.00,,,0.00,Wunderground v.1.15,2013-02-10 03:20:00,
2013-02-09 21:25:00,61.7,42.3,29.88,East,99,1.0,2.0,49,0.00,,,0.00,Wunderground v.1.15,2013-02-10 03:25:00,
2013-02-09 21:30:00,61.8,42.4,29.88,East,99,1.0,1.0,49,0.00,,,0.00,Wunderground v.1.15,2013-02-10 03:30:00,
2013-02-09 21:35:00,61.9,42.5,29.88,East,99,1.0,1.0,49,0.00,,,0.00,Wunderground v.1.15,2013-02-10 03:35:00,
2013-02-09 21:45:00,62.0,43.1,29.88,East,99,1.0,1.0,50,0.00,,,0.00,Wunderground v.1.15,2013-02-10 03:45:00,
2013-02-09 21:50:00,62.2,42.8,29.88,ESE,111,2.0,2.0,49,0.00,,,0.00,Wunderground v.1.15,2013-02-10 03:50:00,
2013-02-09 22:00:00,62.3,43.4,29.88,SSE,168,1.0,1.0,50,0.00,,,0.00,Wunderground v.1.15,2013-02-10 04:00:00,
2013-02-09 22:05:00,62.3,43.4,29.88,SSE,168,0.0,2.0,50,0.00,,,0.00,Wunderground v.1.15,2013-02-10 04:05:00,
2013-02-09 22:10:00,62.3,43.4,29.88,SSE,168,1.0,1.0,50,0.00,,,0.00,Wunderground v.1.15,2013-02-10 04:10:00,
2013-02-09 22:20:00,62.4,43.5,29.88,SSE,168,0.0,2.0,50,0.00,,,0.00,Wunderground v.1.15,2013-02-10 04:20:00,
2013-02-09 22:25:00,62.5,43.6,29.88,SSE,157,1.0,2.0,50,0.00,,,0.00,Wunderground v.1.15,2013-02-10 04:25:00,
2013-02-09 22:30:00,62.5,44.1,29.87,SSE,155,1.0,1.0,51,0.00,,,0.00,Wunderground v.1.15,2013-02-10 04:30:00,
2013-02-09 22:35:00,62.5,44.1,29.87,SSE,152,0.0,2.0,51,0.00,,,0.00,Wunderground v.1.15,2013-02-10 04:35:00,
2013-02-09 22:40:00,62.6,43.7,29.88,ESE,111,1.0,1.0,50,0.00,,,0.00,Wunderground v.1.15,2013-02-10 04:40:00,
2013-02-09 22:50:00,62.6,43.7,29.87,ESE,121,1.0,1.0,50,0.00,,,0.00,Wunderground v.1.15,2013-02-10 04:50:00,
2013-02-09 23:00:00,62.7,43.8,29.87,ESE,111,1.0,1.0,50,0.00,,,0.00,Wunderground v.1.15,2013-02-10 05:00:00,
2013-02-09 23:05:00,62.7,43.8,29.86,ESE,111,1.0,1.0,50,0.00,,,0.00,Wunderground v.1.15,2013-02-10 05:05:00,
2013-02-09 23:10:00,62.8,43.9,29.86,ESE,110,1.0,1.0,50,0.00,,,0.00,Wunderground v.1.15,2013-02-10 05:10:00,
2013-02-09 23:20:00,62.9,44.0,29.86,ESE,121,1.0,1.0,50,0.00,,,0.00,Wunderground v.1.15,2013-02-10 05:20:00,
2013-02-09 23:25:00,62.9,44.0,29.86,East,101,1.0,1.0,50,0.00,,,0.00,Wunderground v.1.15,2013-02-10 05:25:00,
2013-02-09 23:30:00,63.0,44.1,29.86,ESE,103,1.0,1.0,50,0.00,,,0.00,Wunderground v.1.15,2013-02-10 05:30:00,
2013-02-09 23:35:00,63.0,44.1,29.85,ESE,104,1.0,1.0,50,0.00,,,0.00,Wunderground v.1.15,2013-02-10 05:35:00,
2013-02-09 23:40:00,63.0,44.1,29.85,ESE,104,1.0,3.0,50,0.00,,,0.00,Wunderground v.1.15,2013-02-10 05:40:00,
2013-02-09 23:50:00,63.1,44.2,29.84,SSE,161,1.0,1.0,50,0.00,,,0.00,Wunderground v.1.15,2013-02-10 05:50:00,
2013-02-09 23:55:00,63.2,44.2,29.84,East,98,1.0,5.0,50,0.00,,,0.00,Wunderground v.1.15,2013-02-10 05:55:00,